Time;durP1;ratioP1;P1;durP2;ratioP2;P2;SDS_P1;SDS_P2;PMS_P1;PMS_P2;Temp;Humidity;BMP_temperature;BMP_pressure;BME280_temperature;BME280_humidity;BME280_pressure;Samples;Min_cycle;Max_cycle;Signal;HPM_P1;HPM_P2
2023/09/13 00:01:46;;;;;;;22.15;19.75;;;19.70;99.90;;;;;;5065088;28;20450;-75
2023/09/13 00:04:12;;;;;;;20.83;18.60;;;19.70;99.90;;;;;;5074715;28;20047;-74
2023/09/13 00:06:39;;;;;;;20.67;18.67;;;19.70;99.90;;;;;;5082845;28;20059;-73
2023/09/13 00:09:06;;;;;;;22.13;19.92;;;19.70;99.90;;;;;;5067452;28;20475;-73
2023/09/13 00:11:32;;;;;;;21.83;19.67;;;19.80;99.90;;;;;;5079459;28;20105;-73
2023/09/13 00:13:58;;;;;;;22.13;19.83;;;19.80;99.90;;;;;;5066487;28;20051;-73
2023/09/13 00:16:24;;;;;;;21.15;18.88;;;19.70;99.90;;;;;;5067983;28;20040;-72
2023/09/13 00:18:51;;;;;;;23.58;20.98;;;19.70;99.90;;;;;;5070174;28;20149;-72
2023/09/13 00:21:17;;;;;;;22.65;19.73;;;19.70;99.90;;;;;;5064208;28;20036;-72
2023/09/13 00:23:44;;;;;;;23.58;21.10;;;19.70;99.90;;;;;;5089380;28;20046;-72
2023/09/13 00:26:11;;;;;;;;;;;19.70;99.90;;;;;;5068388;28;20518;-73
2023/09/13 00:28:37;;;;;;;23.70;20.27;;;19.60;99.90;;;;;;5067792;28;19926;-72
2023/09/13 00:31:02;;;;;;;25.35;22.48;;;19.60;99.90;;;;;;5058531;28;20032;-73
2023/09/13 00:33:29;;;;;;;24.92;21.92;;;19.60;99.90;;;;;;5070362;28;20044;-71
2023/09/13 00:35:58;;;;;;;27.67;21.60;;;19.60;99.90;;;;;;5086213;28;20032;-72
2023/09/13 00:38:24;;;;;;;26.10;21.98;;;19.60;99.90;;;;;;5062585;28;20049;-72
2023/09/13 00:40:49;;;;;;;28.95;23.08;;;19.50;99.90;;;;;;5065215;28;20047;-72
2023/09/13 00:43:15;;;;;;;23.45;20.95;;;19.50;99.90;;;;;;5060406;28;20045;-72
2023/09/13 00:45:41;;;;;;;23.95;21.05;;;19.60;99.90;;;;;;5086112;28;20044;-72
2023/09/13 00:48:08;;;;;;;23.43;20.07;;;19.60;99.90;;;;;;5063470;28;20560;-73
2023/09/13 00:50:36;;;;;;;23.63;20.83;;;19.60;99.90;;;;;;5064323;28;20040;-73
2023/09/13 00:53:03;;;;;;;23.08;20.33;;;19.50;99.90;;;;;;5084184;28;20048;-73
2023/09/13 00:55:30;;;;;;;23.85;19.33;;;19.50;99.90;;;;;;5084720;28;20052;-73
2023/09/13 00:57:57;;;;;;;24.73;19.75;;;19.50;99.90;;;;;;5066178;28;20055;-71
2023/09/13 01:00:24;;;;;;;24.17;18.83;;;19.50;99.90;;;;;;5064870;28;20047;-72
2023/09/13 01:02:50;;;;;;;;;;;19.50;99.90;;;;;;5088348;28;20083;-72
2023/09/13 01:05:16;;;;;;;24.57;19.90;;;19.50;99.90;;;;;;5058307;28;19924;-73
2023/09/13 01:07:44;;;;;;;28.70;20.30;;;19.40;99.90;;;;;;5065860;28;20040;-72
2023/09/13 01:10:11;;;;;;;23.45;19.00;;;19.50;99.90;;;;;;5067268;28;20040;-72
2023/09/13 01:12:37;;;;;;;24.73;18.77;;;19.50;99.90;;;;;;5082148;28;20078;-72
2023/09/13 01:15:06;;;;;;;24.80;19.15;;;19.50;99.90;;;;;;5086018;28;20036;-72
2023/09/13 01:17:50;;;;;;;26.65;19.45;;;19.50;99.90;;;;;;5069524;28;20495;-72
2023/09/13 01:20:30;;;;;;;21.40;17.55;;;19.50;99.90;;;;;;5064300;28;20028;-72
2023/09/13 01:23:35;;;;;;;23.20;18.45;;;19.50;99.90;;;;;;5078802;28;20040;-71
2023/09/13 01:26:00;;;;;;;28.40;19.42;;;19.50;99.90;;;;;;5058676;28;20064;-73
2023/09/13 01:28:40;;;;;;;23.50;17.98;;;19.50;99.90;;;;;;5064875;28;20143;-72
2023/09/13 01:31:08;;;;;;;25.38;17.63;;;19.50;99.90;;;;;;5081302;28;20368;-72
2023/09/13 01:33:34;;;;;;;26.15;17.92;;;19.50;99.90;;;;;;5068753;28;20135;-72
2023/09/13 01:35:59;;;;;;;25.58;17.67;;;19.50;99.90;;;;;;5061926;28;20127;-73
2023/09/13 01:38:26;;;;;;;25.05;17.65;;;19.40;99.90;;;;;;5068037;28;20040;-73
2023/09/13 01:40:55;;;;;;;24.65;16.42;;;19.40;99.90;;;;;;5061331;28;20048;-73
2023/09/13 01:43:22;;;;;;;25.77;16.95;;;19.40;99.90;;;;;;5070759;28;20097;-73
2023/09/13 01:45:48;;;;;;;18.02;15.05;;;19.40;99.90;;;;;;5063001;28;20058;-72
2023/09/13 01:48:16;;;;;;;23.77;15.03;;;19.40;99.90;;;;;;5069507;28;20044;-72
2023/09/13 01:50:42;;;;;;;24.58;13.82;;;19.40;99.90;;;;;;5069206;28;20064;-72
2023/09/13 01:53:08;;;;;;;23.38;14.52;;;19.40;99.90;;;;;;5072111;28;20040;-72
2023/09/13 01:55:35;;;;;;;18.30;12.93;;;19.30;99.90;;;;;;5067046;28;20041;-72
2023/09/13 01:58:01;;;;;;;18.43;12.40;;;19.30;99.90;;;;;;5087723;28;20085;-72
2023/09/13 02:00:26;;;;;;;17.23;12.43;;;19.30;99.90;;;;;;5063400;28;20429;-72
2023/09/13 02:02:52;;;;;;;22.58;13.27;;;19.30;99.90;;;;;;5061960;28;20143;-73
2023/09/13 02:05:18;;;;;;;20.20;12.32;;;19.30;99.90;;;;;;5056388;28;20794;-72
2023/09/13 02:07:43;;;;;;;18.42;10.50;;;19.30;99.90;;;;;;5084125;28;20101;-73
2023/09/13 02:10:09;;;;;;;21.10;10.85;;;19.30;99.90;;;;;;5073904;28;20097;-72
2023/09/13 02:12:35;;;;;;;19.58;9.90;;;19.20;99.90;;;;;;5067788;28;20151;-72
2023/09/13 02:15:00;;;;;;;15.88;9.50;;;19.20;99.90;;;;;;5089045;28;20040;-73
2023/09/13 02:17:26;;;;;;;15.88;9.20;;;19.10;99.90;;;;;;5090209;28;20048;-72
2023/09/13 02:19:52;;;;;;;21.65;9.30;;;19.10;99.90;;;;;;5084704;28;20028;-73
2023/09/13 02:22:17;;;;;;;16.55;9.07;;;19.10;99.90;;;;;;5059799;28;20052;-73
2023/09/13 02:24:43;;;;;;;18.52;9.23;;;19.10;99.90;;;;;;5070964;28;20032;-73
2023/09/13 02:27:09;;;;;;;24.42;9.23;;;19.00;99.90;;;;;;5066955;28;20051;-73
2023/09/13 02:29:34;;;;;;;16.83;8.57;;;19.00;99.90;;;;;;5061421;28;20053;-72
2023/09/13 02:32:00;;;;;;;13.27;7.60;;;19.00;99.90;;;;;;5061674;28;20079;-73
2023/09/13 02:34:26;;;;;;;17.85;8.48;;;18.90;99.90;;;;;;5064352;28;20047;-73
2023/09/13 02:36:51;;;;;;;12.90;7.22;;;18.90;99.90;;;;;;5067788;28;20052;-73
2023/09/13 02:39:38;;;;;;;17.50;7.53;;;18.90;99.90;;;;;;5065281;28;20044;-73
2023/09/13 02:42:05;;;;;;;15.07;7.03;;;18.90;99.90;;;;;;5061509;28;20066;-73
2023/09/13 02:44:31;;;;;;;16.38;7.10;;;18.90;99.90;;;;;;5088198;28;20054;-73
2023/09/13 02:46:58;;;;;;;14.90;6.63;;;18.90;99.90;;;;;;5064619;28;20047;-72
2023/09/13 02:49:24;;;;;;;16.50;6.40;;;18.80;99.90;;;;;;5067939;28;20044;-73
2023/09/13 02:51:51;;;;;;;13.50;6.55;;;18.80;99.90;;;;;;5066297;28;20040;-73
2023/09/13 02:54:17;;;;;;;13.32;6.30;;;18.80;99.90;;;;;;5063145;28;20048;-72
2023/09/13 02:56:43;;;;;;;12.77;6.07;;;18.80;99.90;;;;;;5065446;28;20101;-73
2023/09/13 02:59:09;;;;;;;10.60;5.75;;;18.80;99.90;;;;;;5078571;28;20039;-73
2023/09/13 03:01:35;;;;;;;14.18;5.38;;;18.80;99.90;;;;;;5062382;28;20130;-73
2023/09/13 03:04:00;;;;;;;9.30;5.03;;;18.80;99.90;;;;;;5070033;28;20048;-73
2023/09/13 03:06:26;;;;;;;12.00;6.05;;;18.70;99.90;;;;;;5071071;28;20068;-73
2023/09/13 03:08:52;;;;;;;12.25;5.18;;;18.70;99.90;;;;;;5059844;28;20055;-73
2023/09/13 03:11:18;;;;;;;10.32;4.47;;;18.70;99.90;;;;;;5072226;28;20092;-72
2023/09/13 03:13:45;;;;;;;11.55;5.68;;;18.70;99.90;;;;;;5068176;28;20052;-73
2023/09/13 03:16:12;;;;;;;10.95;4.88;;;18.70;99.90;;;;;;5073994;28;20055;-73
2023/09/13 03:18:38;;;;;;;10.75;5.05;;;18.60;99.90;;;;;;5083608;28;20044;-72
2023/09/13 03:21:12;;;;;;;10.20;4.50;;;18.60;99.90;;;;;;5076861;28;20116;-73
2023/09/13 03:23:42;;;;;;;7.90;4.47;;;18.70;99.90;;;;;;5059694;28;20124;-72
2023/09/13 03:26:15;;;;;;;14.23;5.50;;;18.60;99.90;;;;;;5069107;28;20067;-73
2023/09/13 03:28:44;;;;;;;11.65;4.97;;;18.60;99.90;;;;;;5076632;28;20052;-73
2023/09/13 03:31:15;;;;;;;13.05;4.90;;;18.60;99.90;;;;;;5063151;28;20101;-73
2023/09/13 03:33:42;;;;;;;11.63;5.07;;;18.60;99.90;;;;;;5063546;28;20044;-73
2023/09/13 03:36:09;;;;;;;10.52;4.88;;;18.50;99.90;;;;;;5054256;28;20098;-73
2023/09/13 03:38:42;;;;;;;13.98;5.80;;;18.60;99.90;;;;;;5071821;28;20060;-72
2023/09/13 03:41:09;;;;;;;10.15;4.43;;;18.50;99.90;;;;;;5065533;28;20066;-73
2023/09/13 03:43:35;;;;;;;11.55;4.40;;;18.50;99.90;;;;;;5068687;28;20056;-73
2023/09/13 03:46:03;;;;;;;12.30;4.78;;;18.50;99.90;;;;;;5065448;28;20404;-72
2023/09/13 03:48:30;;;;;;;12.68;5.18;;;18.50;99.90;;;;;;5060779;28;20086;-73
2023/09/13 03:50:56;;;;;;;12.35;5.40;;;18.50;99.90;;;;;;5083849;28;20590;-72
2023/09/13 03:53:21;;;;;;;11.77;5.28;;;18.50;99.90;;;;;;5068497;28;20044;-72
2023/09/13 03:55:47;;;;;;;13.45;5.03;;;18.40;99.90;;;;;;5067214;28;20044;-72
2023/09/13 03:58:13;;;;;;;12.55;5.13;;;18.40;99.90;;;;;;5076019;28;20387;-72
2023/09/13 04:00:39;;;;;;;10.55;4.57;;;18.40;99.90;;;;;;5073550;28;20154;-72
2023/09/13 04:03:05;;;;;;;14.32;4.97;;;18.40;99.90;;;;;;5064177;28;20040;-73
2023/09/13 04:05:31;;;;;;;11.68;5.15;;;18.40;99.90;;;;;;5063620;28;20134;-72
2023/09/13 04:08:00;;;;;;;10.93;5.35;;;18.40;99.90;;;;;;5086194;28;20372;-72
2023/09/13 04:10:26;;;;;;;11.05;5.38;;;18.40;99.90;;;;;;5067854;28;20037;-72
2023/09/13 04:12:52;;;;;;;12.85;5.07;;;18.40;99.90;;;;;;5085384;28;20505;-73
2023/09/13 04:15:17;;;;;;;13.20;5.82;;;18.30;99.90;;;;;;5060183;28;20117;-73
2023/09/13 04:17:43;;;;;;;13.90;5.60;;;18.30;99.90;;;;;;5062038;28;20037;-73
2023/09/13 04:20:10;;;;;;;10.38;6.00;;;18.30;99.90;;;;;;5063178;28;20047;-70
2023/09/13 04:22:36;;;;;;;15.57;5.60;;;18.30;99.90;;;;;;5066668;28;20040;-70
2023/09/13 04:25:06;;;;;;;12.05;5.90;;;18.20;99.90;;;;;;5065327;28;20039;-70
2023/09/13 04:27:31;;;;;;;12.02;6.18;;;18.20;99.90;;;;;;5061656;28;20051;-70
2023/09/13 04:29:57;;;;;;;17.42;7.20;;;18.20;99.90;;;;;;5086977;28;20112;-70
2023/09/13 04:32:24;;;;;;;12.15;6.32;;;18.20;99.90;;;;;;5065254;28;20055;-70
2023/09/13 04:34:53;;;;;;;11.83;6.30;;;18.20;99.90;;;;;;5064393;28;20044;-70
2023/09/13 04:37:20;;;;;;;11.63;6.63;;;18.20;99.90;;;;;;5063469;28;20048;-70
2023/09/13 04:39:46;;;;;;;13.50;7.38;;;18.20;99.90;;;;;;5064121;28;20068;-70
2023/09/13 04:42:14;;;;;;;13.93;7.13;;;18.20;99.90;;;;;;5081901;28;20175;-70
2023/09/13 04:44:39;;;;;;;12.80;7.32;;;18.20;99.90;;;;;;5087812;28;20118;-70
2023/09/13 04:47:05;;;;;;;14.05;7.55;;;18.20;99.90;;;;;;5067174;28;20171;-73
2023/09/13 04:49:31;;;;;;;11.57;7.55;;;18.20;99.90;;;;;;5086243;28;20036;-73
2023/09/13 04:51:57;;;;;;;14.45;7.90;;;18.20;99.90;;;;;;5085509;28;20040;-73
2023/09/13 04:54:23;;;;;;;13.38;7.20;;;18.10;99.90;;;;;;5056311;28;20490;-72
2023/09/13 04:56:49;;;;;;;12.32;6.15;;;18.10;99.90;;;;;;5066249;28;20151;-72
2023/09/13 04:59:16;;;;;;;16.45;8.00;;;18.10;99.90;;;;;;5083462;28;20093;-72
2023/09/13 05:01:41;;;;;;;15.10;7.70;;;18.10;99.90;;;;;;5071960;28;20047;-73
2023/09/13 05:04:07;;;;;;;13.50;7.13;;;18.10;99.90;;;;;;5062628;28;20044;-73
2023/09/13 05:06:33;;;;;;;13.95;7.65;;;18.10;99.90;;;;;;5087837;28;20051;-73
2023/09/13 05:08:59;;;;;;;11.55;6.78;;;18.10;99.90;;;;;;5092835;28;20042;-73
2023/09/13 05:11:25;;;;;;;11.38;6.85;;;18.10;99.90;;;;;;5092042;28;20090;-73
2023/09/13 05:14:07;;;;;;;12.25;7.20;;;18.10;99.90;;;;;;5089905;28;20044;-72
2023/09/13 05:16:33;;;;;;;14.40;6.85;;;18.10;99.90;;;;;;5063524;28;20043;-73
2023/09/13 05:18:58;;;;;;;12.68;6.80;;;18.10;99.90;;;;;;5076037;28;20048;-72
2023/09/13 05:21:24;;;;;;;14.73;7.57;;;18.10;99.90;;;;;;5071664;28;20526;-73
2023/09/13 05:23:49;;;;;;;11.10;6.78;;;18.10;99.90;;;;;;5070119;28;20475;-73
2023/09/13 05:26:15;;;;;;;12.15;7.00;;;18.10;99.90;;;;;;5068280;28;20372;-73
2023/09/13 05:28:42;;;;;;;12.93;7.13;;;18.10;99.90;;;;;;5070092;28;20052;-73
2023/09/13 05:31:07;;;;;;;12.60;7.07;;;18.10;99.90;;;;;;5065237;28;20065;-73
2023/09/13 05:33:34;;;;;;;14.02;6.30;;;18.00;99.90;;;;;;5068625;28;20063;-72
2023/09/13 05:36:00;;;;;;;11.30;6.67;;;18.00;99.90;;;;;;5071715;28;20058;-73
2023/09/13 05:38:26;;;;;;;11.57;5.93;;;18.10;99.90;;;;;;5069531;28;20294;-73
2023/09/13 05:40:51;;;;;;;13.40;7.35;;;18.00;99.90;;;;;;5088981;28;20512;-73
2023/09/13 05:43:17;;;;;;;11.90;6.03;;;18.00;99.90;;;;;;5081386;28;20501;-72
2023/09/13 05:45:43;;;;;;;13.45;6.75;;;18.10;99.90;;;;;;5066762;28;20043;-73
2023/09/13 05:48:08;;;;;;;11.35;6.70;;;18.00;99.90;;;;;;5059426;28;20056;-72
2023/09/13 05:50:34;;;;;;;11.45;6.90;;;18.00;99.90;;;;;;5083942;28;20124;-73
2023/09/13 05:53:00;;;;;;;12.88;6.25;;;18.00;99.90;;;;;;5069019;28;20127;-73
2023/09/13 05:55:25;;;;;;;11.65;6.65;;;18.00;99.90;;;;;;5064819;28;20036;-73
2023/09/13 05:57:51;;;;;;;13.63;6.30;;;18.00;99.90;;;;;;5089519;28;20066;-73
2023/09/13 06:00:18;;;;;;;14.70;7.07;;;18.00;99.90;;;;;;5062578;28;20094;-73
2023/09/13 06:02:44;;;;;;;;;;;18.00;99.90;;;;;;5068038;28;20048;-73
2023/09/13 06:05:10;;;;;;;13.57;6.75;;;18.00;99.90;;;;;;5072353;28;20027;-73
2023/09/13 06:07:36;;;;;;;14.63;6.50;;;17.90;99.90;;;;;;5064359;28;20045;-72
2023/09/13 06:10:05;;;;;;;14.40;6.30;;;17.90;99.90;;;;;;5065652;28;20044;-72
2023/09/13 06:12:31;;;;;;;17.80;7.60;;;17.90;99.90;;;;;;5088917;28;20127;-71
2023/09/13 06:14:59;;;;;;;14.68;6.97;;;17.80;99.90;;;;;;5069862;28;20651;-70
2023/09/13 06:17:25;;;;;;;11.00;5.13;;;17.80;99.90;;;;;;5069683;28;20052;-71
2023/09/13 06:19:51;;;;;;;12.27;3.70;;;17.70;99.90;;;;;;5078031;28;20415;-71
2023/09/13 06:22:17;;;;;;;10.60;3.40;;;17.60;99.90;;;;;;5056991;28;20040;-71
2023/09/13 06:24:44;;;;;;;11.47;3.23;;;17.50;99.90;;;;;;5057850;28;20302;-71
2023/09/13 06:27:10;;;;;;;9.82;3.03;;;17.30;99.90;;;;;;5068377;28;20051;-71
2023/09/13 06:29:36;;;;;;;10.65;2.85;;;17.10;99.90;;;;;;5061270;28;20044;-71
2023/09/13 06:32:06;;;;;;;10.75;2.95;;;16.90;99.90;;;;;;5081353;28;20114;-71
2023/09/13 06:34:32;;;;;;;8.48;2.38;;;16.70;99.90;;;;;;5061958;28;20055;-71
2023/09/13 06:36:58;;;;;;;10.40;2.70;;;16.60;99.90;;;;;;5060814;28;20090;-72
2023/09/13 06:39:24;;;;;;;10.23;3.25;;;16.50;99.90;;;;;;5057437;28;20048;-71
2023/09/13 06:41:50;;;;;;;9.32;2.75;;;16.30;99.90;;;;;;5079144;28;20048;-71
2023/09/13 06:44:16;;;;;;;10.50;2.35;;;16.20;99.90;;;;;;5063660;28;20127;-71
2023/09/13 06:46:42;;;;;;;8.13;2.53;;;16.10;99.90;;;;;;5066311;28;20071;-70
2023/09/13 06:49:07;;;;;;;8.88;2.95;;;15.90;99.90;;;;;;5064277;28;20090;-70
2023/09/13 06:51:33;;;;;;;9.27;2.90;;;15.80;99.90;;;;;;5058971;28;20046;-70
2023/09/13 06:53:59;;;;;;;9.00;2.60;;;15.70;99.90;;;;;;5084224;28;20044;-70
2023/09/13 06:56:25;;;;;;;8.10;2.55;;;15.60;99.90;;;;;;5077628;28;20051;-71
2023/09/13 06:58:53;;;;;;;7.03;2.92;;;15.50;99.90;;;;;;5057832;28;20121;-70
2023/09/13 07:01:19;;;;;;;8.05;2.78;;;15.40;99.90;;;;;;5064914;28;20056;-70
2023/09/13 07:03:45;;;;;;;8.93;2.60;;;15.40;99.90;;;;;;5055005;28;20509;-69
2023/09/13 07:06:14;;;;;;;8.90;2.70;;;15.40;99.90;;;;;;5084075;28;20583;-69
2023/09/13 07:08:40;;;;;;;9.07;2.60;;;15.40;99.90;;;;;;5057851;28;20072;-69
2023/09/13 07:11:05;;;;;;;8.27;2.78;;;15.40;99.90;;;;;;5060334;28;20094;-69
2023/09/13 07:13:31;;;;;;;7.18;2.38;;;15.30;99.90;;;;;;5064504;28;20519;-69
2023/09/13 07:15:57;;;;;;;7.72;2.70;;;15.40;99.90;;;;;;5067945;28;20051;-69
2023/09/13 07:18:24;;;;;;;7.32;2.47;;;15.40;99.90;;;;;;5070650;28;20135;-69
2023/09/13 07:20:49;;;;;;;5.70;2.20;;;15.50;99.90;;;;;;5075501;28;20058;-69
2023/09/13 07:23:15;;;;;;;6.82;2.53;;;15.50;99.90;;;;;;5067744;28;20044;-69
2023/09/13 07:25:41;;;;;;;5.28;2.28;;;15.60;99.90;;;;;;5056392;28;20044;-70
2023/09/13 07:28:07;;;;;;;5.88;2.30;;;15.60;99.90;;;;;;5085135;28;20047;-70
2023/09/13 07:30:33;;;;;;;8.45;2.47;;;15.60;99.90;;;;;;5075161;28;20040;-70
2023/09/13 07:33:00;;;;;;;6.30;2.42;;;15.60;99.90;;;;;;5085049;28;20555;-71
2023/09/13 07:35:26;;;;;;;5.10;2.30;;;15.60;99.90;;;;;;5086225;28;20036;-71
2023/09/13 07:37:51;;;;;;;6.28;2.25;;;15.60;99.90;;;;;;5058901;28;20044;-71
2023/09/13 07:40:17;;;;;;;6.28;2.28;;;15.60;99.90;;;;;;5060501;28;20063;-70
2023/09/13 07:42:43;;;;;;;6.45;2.30;;;15.70;99.90;;;;;;5075392;28;20049;-73
2023/09/13 07:45:09;;;;;;;3.75;1.75;;;15.70;99.90;;;;;;5059025;28;20050;-72
2023/09/13 07:47:34;;;;;;;4.75;1.83;;;15.80;99.90;;;;;;5068668;28;20039;-72
2023/09/13 07:50:00;;;;;;;5.57;2.00;;;15.80;99.90;;;;;;5073027;28;20040;-72
2023/09/13 07:52:26;;;;;;;4.35;1.67;;;15.90;99.90;;;;;;5071146;28;20454;-73
2023/09/13 07:54:52;;;;;;;4.55;1.90;;;15.80;99.90;;;;;;5072043;28;20502;-73
2023/09/13 07:57:18;;;;;;;4.90;1.92;;;15.90;99.90;;;;;;5072053;28;20044;-72
2023/09/13 07:59:44;;;;;;;5.68;2.50;;;15.80;99.90;;;;;;5068012;28;20044;-72
2023/09/13 08:02:10;;;;;;;5.18;2.10;;;15.80;99.90;;;;;;5084824;28;20036;-72
2023/09/13 08:04:36;;;;;;;4.90;2.60;;;15.70;99.90;;;;;;5070479;28;20085;-72
2023/09/13 08:07:03;;;;;;;6.15;2.45;;;15.70;99.90;;;;;;5068718;28;20044;-73
2023/09/13 08:09:28;;;;;;;4.95;2.25;;;15.80;99.90;;;;;;5082247;28;20036;-72
2023/09/13 08:11:54;;;;;;;7.65;2.85;;;15.80;99.90;;;;;;5084991;28;20039;-73
2023/09/13 08:14:20;;;;;;;6.68;2.75;;;15.80;99.90;;;;;;5066051;28;20080;-74
2023/09/13 08:16:46;;;;;;;8.45;2.63;;;15.80;99.90;;;;;;5071928;28;20048;-74
2023/09/13 08:19:12;;;;;;;7.03;2.85;;;15.80;99.90;;;;;;5072076;28;20047;-73
2023/09/13 08:21:38;;;;;;;7.72;3.20;;;15.80;99.90;;;;;;5089038;28;20047;-77
2023/09/13 08:24:05;;;;;;;7.43;2.85;;;15.90;99.90;;;;;;5063864;28;20079;-73
2023/09/13 08:26:31;;;;;;;9.73;3.25;;;15.90;99.90;;;;;;5079072;28;20044;-71
2023/09/13 08:28:57;;;;;;;7.95;3.42;;;15.90;99.90;;;;;;5067780;28;20443;-71
2023/09/13 08:31:25;;;;;;;8.35;3.08;;;16.00;99.90;;;;;;5064453;28;20040;-71
2023/09/13 08:33:52;;;;;;;6.18;3.38;;;16.00;99.90;;;;;;5072610;28;20048;-71
2023/09/13 08:36:18;;;;;;;8.60;3.10;;;16.00;99.90;;;;;;5070860;28;20075;-71
2023/09/13 08:38:44;;;;;;;9.63;3.40;;;16.10;99.90;;;;;;5068585;28;20079;-72
2023/09/13 08:41:11;;;;;;;8.07;3.47;;;16.10;99.90;;;;;;5069970;28;20134;-72
2023/09/13 08:43:38;;;;;;;7.82;3.03;;;16.10;99.90;;;;;;5090734;28;20519;-72
2023/09/13 08:46:06;;;;;;;6.95;3.40;;;16.20;99.90;;;;;;5059534;28;20040;-73
2023/09/13 08:48:33;;;;;;;8.40;3.55;;;16.20;99.90;;;;;;5086343;28;20448;-73
2023/09/13 08:51:02;;;;;;;7.03;2.90;;;16.20;99.90;;;;;;5089954;28;20114;-73
2023/09/13 08:53:29;;;;;;;7.05;3.50;;;16.30;99.90;;;;;;5068637;28;20059;-72
2023/09/13 08:55:55;;;;;;;8.65;3.60;;;16.30;99.90;;;;;;5071435;28;20032;-72
2023/09/13 08:58:21;;;;;;;6.93;3.40;;;16.30;99.90;;;;;;5066154;28;20051;-72
2023/09/13 09:00:51;;;;;;;7.57;3.30;;;16.40;99.90;;;;;;5065532;28;20039;-75
2023/09/13 09:03:21;;;;;;;6.40;3.00;;;16.40;99.90;;;;;;5062953;28;20037;-74
2023/09/13 09:05:47;;;;;;;7.03;3.13;;;16.40;99.90;;;;;;5060615;28;20071;-74
2023/09/13 09:08:13;;;;;;;6.43;3.47;;;16.40;99.90;;;;;;5071265;28;20079;-74
2023/09/13 09:10:41;;;;;;;6.47;3.30;;;16.40;99.90;;;;;;5071505;28;20048;-74
2023/09/13 09:13:10;;;;;;;7.63;3.28;;;16.50;99.90;;;;;;5069953;28;20059;-74
2023/09/13 09:15:38;;;;;;;8.32;3.17;;;16.60;99.90;;;;;;5066520;28;20537;-74
2023/09/13 09:18:08;;;;;;;7.70;3.30;;;16.60;99.90;;;;;;5068156;28;20048;-74
2023/09/13 09:20:37;;;;;;;5.85;3.22;;;16.70;99.90;;;;;;5087467;28;20119;-74
2023/09/13 09:23:05;;;;;;;8.32;3.30;;;16.80;99.90;;;;;;5064941;28;20035;-74
2023/09/13 09:25:31;;;;;;;7.40;3.38;;;16.90;99.90;;;;;;5068306;28;20552;-74
2023/09/13 09:27:57;;;;;;;9.77;3.38;;;16.90;99.90;;;;;;5070916;28;20052;-74
2023/09/13 09:30:33;;;;;;;7.60;3.38;;;17.00;99.90;;;;;;5070489;28;20127;-74
2023/09/13 09:33:03;;;;;;;8.55;2.95;;;17.10;99.90;;;;;;5070157;28;20051;-74
2023/09/13 09:35:29;;;;;;;9.18;3.53;;;17.20;99.90;;;;;;5070332;28;20043;-74
2023/09/13 09:37:55;;;;;;;8.53;3.83;;;17.10;99.90;;;;;;5068547;28;20613;-74
2023/09/13 09:40:21;;;;;;;6.88;3.30;;;17.20;99.90;;;;;;5069399;28;20924;-74
2023/09/13 09:42:54;;;;;;;7.43;3.22;;;17.30;99.90;;;;;;5058670;28;20040;-74
2023/09/13 09:45:21;;;;;;;10.27;4.15;;;17.30;99.90;;;;;;5070633;28;20093;-74
2023/09/13 09:47:49;;;;;;;8.52;3.15;;;17.40;99.90;;;;;;5064446;28;20109;-72
2023/09/13 09:50:14;;;;;;;;;;;17.50;99.90;;;;;;5078054;28;20044;-72
2023/09/13 09:52:41;;;;;;;8.82;3.50;;;17.50;99.90;;;;;;5088951;28;20395;-72
2023/09/13 09:55:08;;;;;;;9.85;3.63;;;17.50;99.90;;;;;;5074007;28;20076;-72
2023/09/13 09:57:34;;;;;;;10.77;3.83;;;17.40;99.90;;;;;;5091240;28;20496;-72
2023/09/13 10:00:00;;;;;;;8.98;3.65;;;17.40;99.90;;;;;;5063263;28;20056;-71
2023/09/13 10:02:27;;;;;;;10.43;3.65;;;17.40;99.90;;;;;;5089921;28;20047;-71
2023/09/13 10:04:52;;;;;;;9.07;3.22;;;17.30;99.90;;;;;;5071962;28;20509;-70
2023/09/13 10:07:18;;;;;;;8.32;3.45;;;17.30;99.90;;;;;;5073172;28;20036;-70
2023/09/13 10:09:46;;;;;;;9.38;3.22;;;17.30;99.90;;;;;;5065745;28;20043;-70
2023/09/13 10:12:12;;;;;;;9.82;3.65;;;17.20;99.90;;;;;;5071292;28;20083;-71
2023/09/13 10:14:44;;;;;;;8.43;3.20;;;17.30;99.90;;;;;;5092832;28;20483;-71
2023/09/13 10:17:10;;;;;;;9.25;2.95;;;17.30;99.90;;;;;;5067431;28;20043;-70
2023/09/13 10:19:37;;;;;;;8.13;3.23;;;17.20;99.90;;;;;;5064357;28;20044;-70
2023/09/13 10:22:03;;;;;;;6.50;2.67;;;17.20;99.90;;;;;;5067140;28;20044;-68
2023/09/13 10:24:36;;;;;;;9.38;2.92;;;17.20;99.90;;;;;;5073250;28;20093;-69
2023/09/13 10:27:06;;;;;;;11.07;3.35;;;17.30;99.90;;;;;;5088864;28;20127;-72
2023/09/13 10:29:40;;;;;;;8.43;2.67;;;17.50;99.90;;;;;;5088514;28;20387;-69
2023/09/13 10:32:08;;;;;;;5.65;2.47;;;17.70;99.90;;;;;;5078324;28;20498;-69
2023/09/13 10:34:41;;;;;;;6.97;2.92;;;17.80;99.90;;;;;;5065359;28;20040;-68
2023/09/13 10:37:13;;;;;;;8.70;2.67;;;17.90;99.90;;;;;;5063686;28;20040;-70
2023/09/13 10:39:52;;;;;;;7.43;2.60;;;18.00;99.90;;;;;;5065511;28;21790;-69
2023/09/13 10:42:18;;;;;;;7.15;2.40;;;18.10;99.90;;;;;;5080574;28;20036;-69
2023/09/13 10:44:46;;;;;;;5.30;2.50;;;18.10;99.90;;;;;;5083462;28;20040;-69
2023/09/13 10:47:12;;;;;;;6.15;2.20;;;18.10;99.90;;;;;;5070067;28;20044;-69
2023/09/13 10:49:38;;;;;;;6.90;2.92;;;18.10;99.90;;;;;;5081465;28;20043;-71
2023/09/13 10:52:05;;;;;;;5.32;2.50;;;18.10;99.90;;;;;;5059940;28;20055;-71
2023/09/13 10:54:31;;;;;;;7.18;2.58;;;18.10;99.90;;;;;;5058656;28;20463;-71
2023/09/13 10:56:57;;;;;;;7.97;2.50;;;18.10;99.90;;;;;;5071706;28;20044;-70
2023/09/13 10:59:24;;;;;;;7.28;2.58;;;18.10;99.90;;;;;;5069200;28;20070;-70
2023/09/13 11:01:51;;;;;;;8.88;2.85;;;18.10;99.90;;;;;;5072637;28;20047;-70
2023/09/13 11:04:19;;;;;;;7.32;2.50;;;18.10;99.90;;;;;;5085494;28;20080;-75
2023/09/13 11:06:48;;;;;;;7.53;2.72;;;18.30;99.90;;;;;;5068548;28;20660;-71
2023/09/13 11:09:15;;;;;;;7.47;2.67;;;18.50;99.90;;;;;;5067054;28;20097;-72
2023/09/13 11:11:48;;;;;;;;;;;18.70;99.90;;;;;;5058684;28;20067;-72
2023/09/13 11:14:20;;;;;;;9.25;3.25;;;18.70;99.90;;;;;;5068012;28;20031;-72
2023/09/13 11:16:46;;;;;;;8.38;3.50;;;18.70;99.90;;;;;;5090370;28;20125;-71
2023/09/13 11:19:15;;;;;;;10.43;2.90;;;18.60;99.90;;;;;;5065314;28;20052;-71
2023/09/13 11:22:03;;;;;;;8.93;3.08;;;18.50;99.90;;;;;;5065228;28;20059;-71
2023/09/13 11:24:40;;;;;;;8.30;2.75;;;18.20;99.90;;;;;;5067169;28;20048;-70
2023/09/13 11:27:24;;;;;;;8.77;2.70;;;18.00;99.90;;;;;;5064162;28;20047;-70
2023/09/13 11:29:53;;;;;;;10.02;2.83;;;17.90;99.90;;;;;;5071792;28;20380;-70
2023/09/13 11:32:21;;;;;;;6.97;2.55;;;17.70;99.90;;;;;;5063900;28;20039;-71
2023/09/13 11:34:55;;;;;;;10.07;3.40;;;17.60;99.90;;;;;;5055923;28;20060;-70
2023/09/13 11:37:24;;;;;;;8.35;2.70;;;17.60;99.90;;;;;;5083946;28;20055;-70
2023/09/13 11:40:07;;;;;;;11.85;3.45;;;17.50;99.90;;;;;;5069614;28;20052;-70
2023/09/13 11:42:33;;;;;;;9.25;2.50;;;17.50;99.90;;;;;;5063299;28;20047;-69
2023/09/13 11:44:59;;;;;;;11.15;2.90;;;17.50;99.90;;;;;;5061124;28;20057;-68
2023/09/13 11:47:26;;;;;;;9.02;2.70;;;17.50;99.90;;;;;;5071050;28;20048;-68
2023/09/13 11:49:55;;;;;;;7.82;2.72;;;17.50;99.90;;;;;;5067058;28;20055;-69
2023/09/13 11:52:22;;;;;;;10.52;2.97;;;17.60;99.90;;;;;;5065398;28;20048;-68
2023/09/13 11:55:11;;;;;;;8.07;2.80;;;17.70;99.90;;;;;;5067888;28;20040;-68
2023/09/13 11:57:51;;;;;;;10.75;2.83;;;17.80;99.90;;;;;;5080729;28;20094;-68
2023/09/13 12:00:19;;;;;;;8.70;2.97;;;17.80;99.90;;;;;;5089720;28;20057;-69
2023/09/13 12:02:46;;;;;;;8.85;3.10;;;17.80;99.90;;;;;;5088900;28;20039;-69
2023/09/13 12:05:15;;;;;;;9.48;2.85;;;17.90;99.90;;;;;;5081091;28;20487;-68
2023/09/13 12:07:41;;;;;;;9.52;3.30;;;18.00;99.90;;;;;;5085557;28;20663;-68
2023/09/13 12:10:07;;;;;;;8.40;2.92;;;18.00;99.90;;;;;;5061716;28;20048;-68
2023/09/13 12:12:40;;;;;;;7.32;2.83;;;18.10;99.90;;;;;;5061335;28;20336;-67
2023/09/13 12:15:14;;;;;;;6.53;2.80;;;18.10;99.90;;;;;;5069054;28;20089;-68
2023/09/13 12:17:40;;;;;;;10.32;3.00;;;18.10;99.90;;;;;;5052048;28;20056;-68
2023/09/13 12:20:07;;;;;;;6.90;2.80;;;18.30;99.90;;;;;;5069659;28;20486;-68
2023/09/13 12:22:42;;;;;;;;;;;18.50;99.90;;;;;;5061778;28;20387;-67
2023/09/13 12:25:12;;;;;;;9.95;2.70;;;18.70;99.90;;;;;;5063519;28;19920;-69
2023/09/13 12:27:39;;;;;;;8.07;2.70;;;18.90;99.90;;;;;;5062736;28;20071;-68
2023/09/13 12:30:15;;;;;;;8.35;2.45;;;18.90;99.90;;;;;;5085550;28;20047;-70
2023/09/13 12:32:41;;;;;;;7.30;2.30;;;19.00;99.90;;;;;;5067427;28;20051;-69
2023/09/13 12:35:07;;;;;;;10.23;2.85;;;18.90;99.90;;;;;;5085243;28;20043;-70
2023/09/13 12:37:32;;;;;;;8.27;2.80;;;18.80;99.90;;;;;;5079208;28;20491;-69
2023/09/13 12:39:58;;;;;;;8.70;3.13;;;18.70;99.90;;;;;;5058600;28;20092;-69
2023/09/13 12:42:24;;;;;;;7.22;2.63;;;18.60;99.90;;;;;;5088159;28;20044;-69